Time;durP1;ratioP1;P1;durP2;ratioP2;P2;SDS_P1;SDS_P2;PMS_P1;PMS_P2;Temp;Humidity;BMP_temperature;BMP_pressure;BME280_temperature;BME280_humidity;BME280_pressure;Samples;Min_cycle;Max_cycle;Signal;HPM_P1;HPM_P2
2021/05/01 00:00:16;;;;;;;22.70;20.30;;;9.00;99.90;;;;;;5113484;28;20078;-55
2021/05/01 00:02:41;;;;;;;29.20;23.45;;;9.00;99.90;;;;;;5113591;28;20134;-55
2021/05/01 00:05:08;;;;;;;27.67;24.00;;;9.00;99.90;;;;;;5113194;28;20460;-56
2021/05/01 00:07:33;;;;;;;26.48;23.65;;;9.00;99.90;;;;;;5113310;28;20146;-55
2021/05/01 00:10:02;;;;;;;31.17;24.55;;;8.90;99.90;;;;;;5113606;28;20052;-55
2021/05/01 00:12:27;;;;;;;29.88;25.48;;;8.90;99.90;;;;;;5113092;28;20496;-56
2021/05/01 00:14:53;;;;;;;32.78;27.00;;;8.90;99.90;;;;;;5113307;28;20044;-56
2021/05/01 00:17:19;;;;;;;32.35;26.90;;;8.90;99.90;;;;;;5113165;28;20047;-55
2021/05/01 00:19:45;;;;;;;34.35;27.77;;;8.90;99.90;;;;;;5113016;28;20473;-55
2021/05/01 00:22:10;;;;;;;34.05;26.70;;;8.80;99.90;;;;;;5112927;28;20101;-55
2021/05/01 00:24:36;;;;;;;33.05;27.83;;;8.90;99.90;;;;;;5113092;28;20078;-55
2021/05/01 00:27:02;;;;;;;29.27;25.17;;;9.00;99.90;;;;;;5112900;28;20053;-55
2021/05/01 00:29:28;;;;;;;29.65;23.92;;;9.00;99.90;;;;;;5113130;28;20454;-56
2021/05/01 00:31:53;;;;;;;27.00;23.60;;;9.00;99.90;;;;;;5112934;28;20071;-55
2021/05/01 00:34:19;;;;;;;25.55;22.70;;;9.00;99.90;;;;;;5112715;28;20051;-55
2021/05/01 00:36:45;;;;;;;28.10;25.08;;;9.00;99.90;;;;;;5094402;28;20398;-56
2021/05/01 00:39:11;;;;;;;32.15;24.42;;;9.00;99.90;;;;;;5112751;28;20082;-56
2021/05/01 00:41:37;;;;;;;30.70;24.83;;;9.10;99.90;;;;;;5112875;28;20070;-56
2021/05/01 00:44:05;;;;;;;26.10;21.95;;;9.10;99.90;;;;;;5112617;28;20134;-56
2021/05/01 00:46:31;;;;;;;24.48;20.65;;;9.00;99.90;;;;;;5112566;28;20048;-56
2021/05/01 00:48:57;;;;;;;24.80;20.75;;;9.00;99.90;;;;;;5094227;28;20040;-56
2021/05/01 00:51:23;;;;;;;23.00;19.73;;;9.00;99.90;;;;;;5112694;28;20100;-55
2021/05/01 00:53:49;;;;;;;25.95;21.13;;;8.90;99.90;;;;;;5112539;28;20044;-55
2021/05/01 00:56:16;;;;;;;25.25;21.27;;;8.90;99.90;;;;;;5112490;28;20039;-56
2021/05/01 00:58:42;;;;;;;23.30;20.42;;;8.80;99.90;;;;;;5112646;28;20097;-56
2021/05/01 01:03:35;;;;;;;22.95;19.70;;;8.80;99.90;;;;;;5112262;28;20435;-55
2021/05/01 01:06:01;;;;;;;21.35;18.75;;;8.80;99.90;;;;;;5112396;28;20461;-56
2021/05/01 01:08:26;;;;;;;22.60;20.17;;;8.80;99.90;;;;;;5112671;28;20074;-55
2021/05/01 01:10:54;;;;;;;20.45;18.25;;;8.80;99.90;;;;;;5094357;28;20477;-56
2021/05/01 01:13:20;;;;;;;22.95;20.55;;;8.80;99.90;;;;;;5112376;28;20085;-55
2021/05/01 01:15:46;;;;;;;20.75;18.55;;;8.80;99.90;;;;;;5112120;28;20040;-55
2021/05/01 01:18:12;;;;;;;22.15;19.65;;;8.80;99.90;;;;;;5112270;28;20404;-56
2021/05/01 01:20:38;;;;;;;25.77;21.05;;;8.80;99.90;;;;;;5112406;28;20051;-55
2021/05/01 01:23:03;;;;;;;22.60;19.60;;;8.80;99.90;;;;;;5112233;28;20046;-55
2021/05/01 01:25:29;;;;;;;24.58;20.65;;;8.80;99.90;;;;;;5112123;28;20126;-56
2021/05/01 01:27:55;;;;;;;21.90;19.20;;;8.80;99.90;;;;;;5112140;28;20143;-55
2021/05/01 01:30:28;;;;;;;22.85;19.85;;;8.80;99.90;;;;;;5112342;28;20043;-56
2021/05/01 01:32:54;;;;;;;25.33;20.17;;;8.70;99.90;;;;;;5112021;28;20104;-55
2021/05/01 01:35:21;;;;;;;21.23;19.02;;;8.70;99.90;;;;;;5112053;28;20439;-55
2021/05/01 01:37:47;;;;;;;24.13;19.83;;;8.70;99.90;;;;;;5094162;28;20039;-56
2021/05/01 01:40:14;;;;;;;22.30;19.90;;;8.70;99.90;;;;;;5112007;28;20508;-56
2021/05/01 01:42:41;;;;;;;21.30;19.13;;;8.70;99.90;;;;;;5112211;28;20059;-56
2021/05/01 01:45:09;;;;;;;22.48;18.83;;;8.70;99.90;;;;;;5112026;28;20295;-55
2021/05/01 01:47:35;;;;;;;25.00;19.88;;;8.70;99.90;;;;;;5111748;28;20035;-56
2021/05/01 01:50:01;;;;;;;22.58;19.65;;;8.70;99.90;;;;;;5112145;28;20048;-56
2021/05/01 01:52:27;;;;;;;23.77;21.13;;;8.70;99.90;;;;;;5112117;28;20058;-56
2021/05/01 01:54:53;;;;;;;23.45;20.30;;;8.70;99.90;;;;;;5112072;28;20092;-56
2021/05/01 01:57:18;;;;;;;22.52;20.05;;;8.70;99.90;;;;;;5112011;28;20089;-56
2021/05/01 01:59:44;;;;;;;25.40;20.73;;;8.70;99.90;;;;;;5112106;28;20782;-55
2021/05/01 02:02:10;;;;;;;22.70;20.30;;;8.80;99.90;;;;;;5111722;28;20894;-55
2021/05/01 02:04:37;;;;;;;25.42;21.80;;;8.80;99.90;;;;;;5112119;28;20055;-56
2021/05/01 02:07:04;;;;;;;26.42;22.20;;;8.70;99.90;;;;;;5111935;28;20039;-55
2021/05/01 02:09:30;;;;;;;25.13;20.73;;;8.70;99.90;;;;;;5114476;28;20044;-56
2021/05/01 02:11:56;;;;;;;24.88;21.25;;;8.70;99.90;;;;;;5115589;28;20040;-55
2021/05/01 02:14:22;;;;;;;24.73;22.05;;;8.70;99.90;;;;;;5115473;28;20036;-55
2021/05/01 02:16:48;;;;;;;26.85;21.90;;;8.70;99.90;;;;;;5115389;28;20043;-55
2021/05/01 02:19:13;;;;;;;26.15;21.65;;;8.80;99.90;;;;;;5115368;28;20032;-55
2021/05/01 02:21:39;;;;;;;24.77;21.83;;;8.70;99.90;;;;;;5115421;28;20040;-55
2021/05/01 02:24:05;;;;;;;24.48;21.83;;;8.70;99.90;;;;;;5115321;28;20059;-56
2021/05/01 02:26:31;;;;;;;27.10;22.60;;;8.70;99.90;;;;;;5115335;28;20051;-56
2021/05/01 02:28:56;;;;;;;24.58;21.52;;;8.70;99.90;;;;;;5115215;28;20398;-55
2021/05/01 02:31:22;;;;;;;25.33;22.63;;;8.70;99.90;;;;;;5115421;28;20189;-55
2021/05/01 02:33:48;;;;;;;29.70;22.95;;;8.70;99.90;;;;;;5114988;28;20054;-55
2021/05/01 02:36:15;;;;;;;25.10;22.33;;;8.70;99.90;;;;;;5115313;28;20397;-56
2021/05/01 02:38:41;;;;;;;25.85;22.98;;;8.60;99.90;;;;;;5115150;28;20054;-55
2021/05/01 02:41:06;;;;;;;26.70;21.90;;;8.60;99.90;;;;;;5114912;28;20096;-55
2021/05/01 02:43:34;;;;;;;26.85;23.40;;;8.60;99.90;;;;;;5114853;28;20089;-56
2021/05/01 02:46:02;;;;;;;27.67;23.20;;;8.60;99.90;;;;;;5114976;28;20040;-56
2021/05/01 02:48:30;;;;;;;28.95;23.48;;;8.50;99.90;;;;;;5115115;28;20056;-55
2021/05/01 02:50:57;;;;;;;28.08;23.77;;;8.50;99.90;;;;;;5114966;28;20044;-55
2021/05/01 02:53:23;;;;;;;26.30;23.08;;;8.50;99.90;;;;;;5114758;28;20468;-55
2021/05/01 02:55:49;;;;;;;28.05;22.85;;;8.50;99.90;;;;;;5114750;28;20122;-55
2021/05/01 02:58:15;;;;;;;28.02;23.02;;;8.50;99.90;;;;;;5114528;28;20039;-55
2021/05/01 03:00:41;;;;;;;27.33;23.42;;;8.50;99.90;;;;;;5114800;28;20432;-55
2021/05/01 03:03:06;;;;;;;27.52;23.20;;;8.50;99.90;;;;;;5114762;28;20052;-55
2021/05/01 03:05:32;;;;;;;27.63;23.77;;;8.50;99.90;;;;;;5114785;28;20147;-55
2021/05/01 03:07:58;;;;;;;28.75;23.55;;;8.50;99.90;;;;;;5114484;28;20135;-55
2021/05/01 03:10:26;;;;;;;29.27;24.65;;;8.50;99.90;;;;;;5114387;28;20047;-56
2021/05/01 03:12:53;;;;;;;27.38;24.30;;;8.50;99.90;;;;;;5114450;28;20035;-55
2021/05/01 03:15:20;;;;;;;30.40;25.10;;;8.50;99.90;;;;;;5114553;28;20032;-55
2021/05/01 03:17:47;;;;;;;31.88;25.75;;;8.50;99.90;;;;;;5114378;28;20043;-56
2021/05/01 03:20:15;;;;;;;32.85;25.95;;;8.40;99.90;;;;;;5113070;28;20438;-56
2021/05/01 03:22:46;;;;;;;30.63;25.08;;;8.40;99.90;;;;;;5114269;28;20047;-56
2021/05/01 03:25:12;;;;;;;28.75;24.83;;;8.40;99.90;;;;;;5114166;28;20082;-56
2021/05/01 03:27:38;;;;;;;29.00;24.65;;;8.40;99.90;;;;;;5114083;28;20043;-56
2021/05/01 03:30:07;;;;;;;27.98;24.10;;;8.40;99.90;;;;;;5114294;28;20035;-55
2021/05/01 03:32:34;;;;;;;29.08;23.95;;;8.40;99.90;;;;;;5113884;28;20134;-56
2021/05/01 03:35:00;;;;;;;29.08;23.77;;;8.40;99.90;;;;;;5114335;28;20434;-55
2021/05/01 03:37:27;;;;;;;29.15;24.23;;;8.40;99.90;;;;;;5113957;28;20040;-55
2021/05/01 03:39:53;;;;;;;28.67;24.88;;;8.40;99.90;;;;;;5113933;28;20043;-56
2021/05/01 03:42:19;;;;;;;29.92;25.13;;;8.30;99.90;;;;;;5113931;28;20435;-56
2021/05/01 03:44:47;;;;;;;29.90;26.05;;;8.40;99.90;;;;;;5113777;28;20130;-56
2021/05/01 03:47:12;;;;;;;33.63;25.88;;;8.40;99.90;;;;;;5113978;28;20134;-55
2021/05/01 03:49:38;;;;;;;29.38;24.42;;;8.30;99.90;;;;;;5113936;28;20051;-56
2021/05/01 03:52:04;;;;;;;28.60;25.10;;;8.30;99.90;;;;;;5113498;28;20054;-55
2021/05/01 03:54:30;;;;;;;29.77;25.48;;;8.30;99.90;;;;;;5113583;28;20116;-56
2021/05/01 03:56:56;;;;;;;27.88;24.83;;;8.30;99.90;;;;;;5113742;28;20065;-55
2021/05/01 03:59:25;;;;;;;28.67;24.17;;;8.30;99.90;;;;;;5113449;28;20047;-56
2021/05/01 04:01:50;;;;;;;33.17;25.10;;;8.20;99.90;;;;;;5113523;28;20078;-56
2021/05/01 04:04:17;;;;;;;30.55;26.40;;;8.20;99.90;;;;;;5113526;28;20516;-56
2021/05/01 04:06:43;;;;;;;30.67;26.55;;;8.10;99.90;;;;;;5113020;28;20067;-56
2021/05/01 04:09:09;;;;;;;30.65;26.60;;;8.10;99.90;;;;;;5113238;28;20074;-56
2021/05/01 04:11:35;;;;;;;31.65;26.25;;;8.00;99.90;;;;;;5113471;28;20040;-56
2021/05/01 04:14:00;;;;;;;32.65;26.92;;;8.00;99.90;;;;;;5112931;28;20401;-55
2021/05/01 04:16:26;;;;;;;33.65;28.48;;;7.90;99.90;;;;;;5113263;28;20044;-56
2021/05/01 04:18:52;;;;;;;32.70;27.27;;;7.90;99.90;;;;;;5113385;28;20074;-56
2021/05/01 04:21:18;;;;;;;33.63;27.58;;;7.80;99.90;;;;;;5113017;28;20570;-55
2021/05/01 04:23:44;;;;;;;31.77;25.85;;;7.80;99.90;;;;;;5112982;28;20043;-56
2021/05/01 04:26:10;;;;;;;31.25;27.35;;;7.80;99.90;;;;;;5112995;28;20036;-55
2021/05/01 04:28:36;;;;;;;30.15;25.80;;;7.80;99.90;;;;;;5113018;28;20047;-55
2021/05/01 04:31:02;;;;;;;33.42;26.25;;;7.80;99.90;;;;;;5112545;28;20109;-56
2021/05/01 04:33:28;;;;;;;33.67;26.85;;;7.70;99.90;;;;;;5112724;28;20052;-55
2021/05/01 04:35:54;;;;;;;30.92;25.58;;;7.80;99.90;;;;;;5112756;28;20426;-56
2021/05/01 04:38:21;;;;;;;34.63;27.40;;;7.80;99.90;;;;;;5112814;28;20052;-56
2021/05/01 04:40:47;;;;;;;30.13;26.75;;;7.80;99.90;;;;;;5112749;28;20047;-56
2021/05/01 04:43:13;;;;;;;32.20;26.40;;;7.70;99.90;;;;;;5112781;28;20077;-55
2021/05/01 04:45:41;;;;;;;31.70;26.77;;;7.80;99.90;;;;;;5112861;28;20043;-55
2021/05/01 04:48:07;;;;;;;30.83;26.38;;;7.80;99.90;;;;;;5112811;28;20463;-55
2021/05/01 04:50:34;;;;;;;32.53;26.65;;;7.80;99.90;;;;;;5112700;28;20043;-55
2021/05/01 04:53:00;;;;;;;32.95;27.17;;;7.80;99.90;;;;;;5112821;28;20055;-55
2021/05/01 04:55:26;;;;;;;31.73;26.98;;;7.80;99.90;;;;;;5112488;28;20039;-55
2021/05/01 04:57:53;;;;;;;31.25;26.63;;;7.80;99.90;;;;;;5113018;28;20135;-55
2021/05/01 05:00:21;;;;;;;31.23;26.23;;;7.80;99.90;;;;;;5112532;28;20142;-55
2021/05/01 05:02:47;;;;;;;33.08;26.88;;;7.80;99.90;;;;;;5112517;28;20039;-56
2021/05/01 05:05:14;;;;;;;35.75;28.13;;;7.70;99.90;;;;;;5112517;28;20051;-56
2021/05/01 05:07:41;;;;;;;35.20;26.67;;;7.60;99.90;;;;;;5112563;28;20050;-55
2021/05/01 05:10:08;;;;;;;37.08;27.35;;;7.60;99.90;;;;;;5112459;28;20039;-55
2021/05/01 05:12:34;;;;;;;34.70;27.30;;;7.50;99.90;;;;;;5112276;28;20038;-55
2021/05/01 05:15:00;;;;;;;33.17;28.30;;;7.50;99.90;;;;;;5112293;28;20481;-56
2021/05/01 05:17:26;;;;;;;35.10;29.13;;;7.60;99.90;;;;;;5112092;28;20048;-55
2021/05/01 05:19:52;;;;;;;34.10;27.13;;;7.50;99.90;;;;;;5112055;28;20130;-56
2021/05/01 05:22:18;;;;;;;35.10;26.38;;;7.50;99.90;;;;;;5112244;28;20121;-56
2021/05/01 05:24:44;;;;;;;32.95;26.55;;;7.50;99.90;;;;;;5112181;28;20469;-56
2021/05/01 05:27:09;;;;;;;34.65;26.23;;;7.50;99.90;;;;;;5112045;28;20040;-56
2021/05/01 05:29:35;;;;;;;38.53;25.63;;;7.50;99.90;;;;;;5112036;28;20039;-56
2021/05/01 05:32:04;;;;;;;32.85;27.17;;;7.50;99.90;;;;;;5111998;28;20484;-55
2021/05/01 05:34:31;;;;;;;36.80;28.38;;;7.50;99.90;;;;;;5111904;28;20104;-56
2021/05/01 05:36:56;;;;;;;33.88;28.60;;;7.50;99.90;;;;;;5111995;28;20040;-56
2021/05/01 05:39:23;;;;;;;40.13;29.15;;;7.60;99.90;;;;;;5111942;28;20042;-56
2021/05/01 05:41:48;;;;;;;33.85;27.35;;;7.60;99.90;;;;;;5112105;28;20040;-56
2021/05/01 05:44:14;;;;;;;35.70;29.17;;;7.70;99.90;;;;;;5096176;28;20048;-56
2021/05/01 05:46:40;;;;;;;33.78;27.35;;;7.80;99.90;;;;;;5116086;28;20389;-56
2021/05/01 05:49:08;;;;;;;35.67;27.98;;;7.80;99.90;;;;;;5116100;28;20051;-56
2021/05/01 05:51:35;;;;;;;29.85;25.17;;;7.80;99.90;;;;;;5116081;28;20039;-56
2021/05/01 05:54:01;;;;;;;32.03;25.95;;;7.90;99.90;;;;;;5116189;28;20052;-56
2021/05/01 05:56:27;;;;;;;31.08;25.77;;;8.00;99.90;;;;;;5115927;28;20035;-55
2021/05/01 05:58:53;;;;;;;26.92;23.17;;;8.10;99.90;;;;;;5115816;28;20126;-56
2021/05/01 06:01:20;;;;;;;27.65;23.17;;;8.10;99.90;;;;;;5115711;28;20047;-56
2021/05/01 06:03:48;;;;;;;25.50;21.77;;;8.10;99.90;;;;;;5116130;28;20043;-55
2021/05/01 06:06:31;;;;;;;22.92;20.05;;;8.20;99.90;;;;;;5115704;28;20077;-56
2021/05/01 06:08:57;;;;;;;23.80;18.58;;;8.30;99.90;;;;;;5116046;28;20040;-55
2021/05/01 06:11:23;;;;;;;19.67;17.50;;;8.30;99.90;;;;;;5115866;28;20435;-56
2021/05/01 06:13:49;;;;;;;19.85;16.88;;;8.30;99.90;;;;;;5115727;28;20044;-56
2021/05/01 06:16:15;;;;;;;18.75;16.58;;;8.40;99.90;;;;;;5115242;28;20062;-56
2021/05/01 06:18:43;;;;;;;19.77;17.67;;;8.40;99.90;;;;;;5115715;28;20397;-56
2021/05/01 06:21:11;;;;;;;18.13;16.00;;;8.50;99.90;;;;;;5115440;28;20489;-56
2021/05/01 06:23:40;;;;;;;17.10;15.25;;;8.50;99.90;;;;;;5115352;28;20035;-55
2021/05/01 06:26:07;;;;;;;15.77;14.18;;;8.70;99.90;;;;;;5115798;28;20047;-56
2021/05/01 06:28:33;;;;;;;16.98;15.18;;;9.00;99.90;;;;;;5115446;28;20482;-56
2021/05/01 06:31:04;;;;;;;16.05;14.35;;;9.40;99.90;;;;;;5115566;28;20737;-56
2021/05/01 06:33:30;;;;;;;15.80;14.13;;;9.70;99.90;;;;;;5115130;28;20055;-56
2021/05/01 06:35:58;;;;;;;16.58;13.05;;;9.90;99.90;;;;;;5115512;28;20050;-56
2021/05/01 06:38:28;;;;;;;13.18;11.77;;;10.10;99.90;;;;;;5114974;28;20541;-56
2021/05/01 06:40:58;;;;;;;13.30;11.63;;;10.30;99.90;;;;;;5115015;28;20043;-56
2021/05/01 06:44:01;;;;;;;12.90;11.10;;;10.40;99.90;;;;;;5097997;28;20043;-56
2021/05/01 06:46:29;;;;;;;11.55;10.35;;;10.70;99.90;;;;;;5114980;28;20071;-56
2021/05/01 06:48:59;;;;;;;14.18;11.07;;;10.80;99.90;;;;;;5097012;28;20054;-56
2021/05/01 06:51:27;;;;;;;11.13;9.98;;;11.00;99.90;;;;;;5114659;28;20042;-56
2021/05/01 06:53:52;;;;;;;12.07;10.52;;;11.30;99.90;;;;;;5114491;28;20074;-56
2021/05/01 06:56:19;;;;;;;9.45;8.45;;;11.70;99.90;;;;;;5114871;28;20063;-56
2021/05/01 06:58:47;;;;;;;9.45;8.55;;;11.80;99.90;;;;;;5114923;28;20047;-56
2021/05/01 07:01:13;;;;;;;9.57;8.52;;;12.10;99.90;;;;;;5114529;28;20031;-56
2021/05/01 07:03:44;;;;;;;9.98;8.98;;;12.40;99.90;;;;;;5114724;28;20463;-56
2021/05/01 07:06:20;;;;;;;7.80;7.00;;;12.50;99.90;;;;;;5114471;28;20040;-56
2021/05/01 07:08:46;;;;;;;8.63;7.72;;;12.70;99.90;;;;;;5114590;28;20043;-56
2021/05/01 07:11:14;;;;;;;8.05;6.93;;;12.60;99.90;;;;;;5114642;28;20113;-55
2021/05/01 07:13:40;;;;;;;9.25;6.90;;;12.80;99.90;;;;;;5114422;28;20039;-56
2021/05/01 07:16:10;;;;;;;7.20;6.50;;;12.80;99.90;;;;;;5114242;28;20530;-56
2021/05/01 07:18:38;;;;;;;9.65;7.30;;;12.70;99.90;;;;;;5114428;28;20391;-55
2021/05/01 07:21:04;;;;;;;8.25;7.05;;;12.70;99.90;;;;;;5114412;28;20050;-56
2021/05/01 07:23:30;;;;;;;8.48;7.18;;;12.70;99.90;;;;;;5114535;28;20044;-56
2021/05/01 07:25:56;;;;;;;7.47;6.78;;;12.90;99.90;;;;;;5114352;28;20519;-56
2021/05/01 07:28:24;;;;;;;9.32;7.43;;;13.00;99.90;;;;;;5114015;28;20036;-56
2021/05/01 07:30:54;;;;;;;8.73;7.38;;;12.80;99.90;;;;;;5114105;28;20036;-56
2021/05/01 07:33:23;;;;;;;8.75;7.85;;;12.80;99.90;;;;;;5113810;28;20058;-56
2021/05/01 07:35:50;;;;;;;;;;;13.20;99.90;;;;;;5114526;28;20044;-56
2021/05/01 07:38:16;;;;;;;10.02;8.50;;;12.90;99.90;;;;;;5113798;28;19916;-56
2021/05/01 07:40:44;;;;;;;8.38;7.57;;;13.00;99.90;;;;;;5113917;28;20032;-56
2021/05/01 07:43:15;;;;;;;10.65;8.52;;;13.20;99.90;;;;;;5113806;28;20040;-56
2021/05/01 07:45:42;;;;;;;9.60;8.55;;;13.10;99.90;;;;;;5113734;28;20048;-56
2021/05/01 07:48:12;;;;;;;11.20;8.95;;;13.10;99.90;;;;;;5113587;28;20040;-55
2021/05/01 07:50:38;;;;;;;10.15;8.70;;;13.20;99.90;;;;;;5113624;28;20055;-56
2021/05/01 07:53:04;;;;;;;11.60;8.20;;;13.30;99.90;;;;;;5113632;28;20046;-56
2021/05/01 07:55:30;;;;;;;10.75;8.80;;;13.40;99.90;;;;;;5113562;28;20079;-56
2021/05/01 07:57:56;;;;;;;10.75;9.65;;;13.50;99.90;;;;;;5113422;28;20051;-56
2021/05/01 08:00:22;;;;;;;10.38;9.30;;;13.50;99.90;;;;;;5113304;28;20512;-56
2021/05/01 08:02:48;;;;;;;11.90;9.73;;;13.40;99.90;;;;;;5113750;28;20047;-56
2021/05/01 08:05:18;;;;;;;10.05;9.02;;;13.10;99.90;;;;;;5113454;28;20043;-56
2021/05/01 08:07:44;;;;;;;10.98;9.73;;;13.20;99.90;;;;;;5112763;28;20049;-56
2021/05/01 08:10:10;;;;;;;11.57;10.23;;;13.20;99.90;;;;;;5113285;28;20047;-56
2021/05/01 08:12:36;;;;;;;11.98;10.13;;;12.90;99.90;;;;;;5113057;28;20092;-56
2021/05/01 08:15:03;;;;;;;10.30;9.27;;;12.90;99.90;;;;;;5113153;28;20043;-56
2021/05/01 08:17:29;;;;;;;13.00;10.50;;;12.90;99.90;;;;;;5113081;28;20378;-56
2021/05/01 08:19:55;;;;;;;11.25;10.00;;;13.00;99.90;;;;;;5113097;28;20047;-56
2021/05/01 08:22:22;;;;;;;12.25;9.98;;;13.30;99.90;;;;;;5113086;28;20120;-56
2021/05/01 08:24:47;;;;;;;12.50;10.23;;;13.30;99.90;;;;;;5113606;28;20138;-56
2021/05/01 08:27:14;;;;;;;12.13;9.77;;;13.40;99.90;;;;;;5112861;28;20135;-56
2021/05/01 08:29:39;;;;;;;11.38;10.00;;;13.30;99.90;;;;;;5095260;28;20075;-56
2021/05/01 08:32:05;;;;;;;12.00;10.73;;;13.10;99.90;;;;;;5113126;28;20047;-55
2021/05/01 08:34:31;;;;;;;12.43;9.82;;;13.10;99.90;;;;;;5112649;28;20047;-56
2021/05/01 08:36:57;;;;;;;13.30;10.93;;;12.70;99.90;;;;;;5113178;28;20058;-55
2021/05/01 08:39:23;;;;;;;12.02;10.82;;;12.50;99.90;;;;;;5112647;28;20036;-56
2021/05/01 08:41:49;;;;;;;18.52;11.10;;;12.20;99.90;;;;;;5112595;28;20095;-56
2021/05/01 08:44:15;;;;;;;12.60;11.30;;;12.10;99.90;;;;;;5112876;28;20043;-56
2021/05/01 08:46:40;;;;;;;15.77;11.45;;;12.00;99.90;;;;;;5112608;28;20577;-56
2021/05/01 08:49:09;;;;;;;12.85;11.27;;;12.00;99.90;;;;;;5112619;28;20043;-56
2021/05/01 08:51:37;;;;;;;15.00;12.60;;;11.80;99.90;;;;;;5094041;28;20504;-56
2021/05/01 08:54:03;;;;;;;13.50;11.80;;;11.70;99.90;;;;;;5112562;28;20038;-56
2021/05/01 08:56:29;;;;;;;16.55;12.73;;;11.60;99.90;;;;;;5112622;28;20039;-55
2021/05/01 08:58:58;;;;;;;13.27;11.85;;;11.40;99.90;;;;;;5112929;28;20100;-55
2021/05/01 09:01:25;;;;;;;14.02;12.57;;;11.30;99.90;;;;;;5112528;28;20050;-55
2021/05/01 09:03:51;;;;;;;14.63;13.05;;;11.30;99.90;;;;;;5112996;28;20124;-55
2021/05/01 09:06:22;;;;;;;14.30;12.65;;;11.40;99.90;;;;;;5112569;28;20126;-55
2021/05/01 09:08:58;;;;;;;13.85;12.45;;;11.30;99.90;;;;;;5112514;28;20396;-56
2021/05/01 09:11:33;;;;;;;13.98;12.38;;;11.40;99.90;;;;;;5112480;28;20044;-55
2021/05/01 09:13:59;;;;;;;15.48;12.40;;;11.40;99.90;;;;;;5112379;28;20082;-55
2021/05/01 09:16:25;;;;;;;13.45;12.05;;;11.40;99.90;;;;;;5112444;28;20435;-56
2021/05/01 09:18:58;;;;;;;15.10;12.68;;;11.40;99.90;;;;;;5115917;28;20044;-56
2021/05/01 09:21:30;;;;;;;13.65;11.98;;;11.40;99.90;;;;;;5116657;28;20042;-56
2021/05/01 09:23:56;;;;;;;16.88;13.00;;;11.30;99.90;;;;;;5116623;28;20080;-56
2021/05/01 09:26:42;;;;;;;16.63;12.88;;;11.40;99.90;;;;;;5116755;28;20039;-55
2021/05/01 09:29:09;;;;;;;16.27;12.82;;;11.30;99.90;;;;;;5116494;28;20063;-55
2021/05/01 09:31:44;;;;;;;14.07;12.63;;;11.30;99.90;;;;;;5098607;28;20561;-55
2021/05/01 09:34:10;;;;;;;15.43;12.57;;;11.30;99.90;;;;;;5116172;28;20072;-55
2021/05/01 09:36:38;;;;;;;13.38;11.80;;;11.40;99.90;;;;;;5116471;28;20036;-55
2021/05/01 09:39:05;;;;;;;14.27;12.65;;;11.40;99.90;;;;;;5116563;28;20062;-55
2021/05/01 09:41:36;;;;;;;13.15;11.10;;;11.40;99.90;;;;;;5116460;28;20050;-55
2021/05/01 09:44:07;;;;;;;13.25;10.43;;;11.40;99.90;;;;;;5116290;28;20071;-55
2021/05/01 09:46:47;;;;;;;13.90;11.73;;;11.30;99.90;;;;;;5116199;28;20042;-55
2021/05/01 09:49:22;;;;;;;13.73;11.18;;;11.30;99.90;;;;;;5116010;28;20035;-55
2021/05/01 09:51:59;;;;;;;12.45;11.15;;;11.20;99.90;;;;;;5115986;28;20074;-55
2021/05/01 09:54:51;;;;;;;14.13;10.93;;;11.20;99.90;;;;;;5115874;28;20036;-55
2021/05/01 09:57:21;;;;;;;14.40;11.57;;;11.30;99.90;;;;;;5111243;28;20062;-56
2021/05/01 09:59:55;;;;;;;15.82;10.65;;;11.30;99.90;;;;;;5115843;28;20485;-55
2021/05/01 10:02:32;;;;;;;11.77;9.70;;;11.30;99.90;;;;;;5115656;28;20062;-55
2021/05/01 10:05:06;;;;;;;13.82;11.60;;;11.40;99.90;;;;;;5115740;28;20080;-55
2021/05/01 10:07:35;;;;;;;12.20;10.52;;;11.50;99.90;;;;;;5115551;28;20126;-55
2021/05/01 10:10:03;;;;;;;13.90;10.30;;;11.40;99.90;;;;;;5115873;28;20043;-55
2021/05/01 10:12:37;;;;;;;11.30;10.10;;;11.50;99.90;;;;;;5115638;28;20052;-55
2021/05/01 10:15:23;;;;;;;12.45;10.05;;;11.70;99.90;;;;;;5115581;28;20043;-56
2021/05/01 10:17:49;;;;;;;12.25;10.65;;;11.70;99.90;;;;;;5115617;28;20621;-56
2021/05/01 10:20:16;;;;;;;13.02;10.52;;;11.80;99.90;;;;;;5115765;28;20481;-55
2021/05/01 10:22:44;;;;;;;11.50;9.73;;;12.00;99.90;;;;;;5115856;28;20043;-55
2021/05/01 10:25:21;;;;;;;12.73;10.35;;;12.00;99.90;;;;;;5115495;28;20537;-55
2021/05/01 10:30:30;;;;;;;12.73;10.82;;;12.10;99.90;;;;;;5097341;28;20054;-56
2021/05/01 10:36:19;;;;;;;11.65;9.73;;;12.30;99.90;;;;;;5115285;28;20054;-56
2021/05/01 10:38:45;;;;;;;13.68;10.20;;;12.30;99.90;;;;;;5115060;28;20067;-56
2021/05/01 10:41:17;;;;;;;12.07;9.57;;;12.20;99.90;;;;;;5115162;28;20270;-55
2021/05/01 10:43:51;;;;;;;11.70;9.00;;;12.10;99.90;;;;;;5115085;28;20044;-55
2021/05/01 10:46:39;;;;;;;9.93;8.88;;;12.10;99.90;;;;;;5096810;28;20036;-55
2021/05/01 10:49:06;;;;;;;12.35;9.38;;;12.10;99.90;;;;;;5114825;28;20032;-55
2021/05/01 10:51:41;;;;;;;9.60;8.60;;;12.10;99.90;;;;;;5115042;28;20088;-56
2021/05/01 10:54:08;;;;;;;9.82;7.85;;;12.10;99.90;;;;;;5115071;28;20058;-56
2021/05/01 10:56:34;;;;;;;13.68;9.75;;;12.00;99.90;;;;;;5114903;28;20122;-55
2021/05/01 10:59:08;;;;;;;11.77;8.75;;;12.20;99.90;;;;;;5114599;28;20122;-56
2021/05/01 11:01:46;;;;;;;10.00;8.98;;;12.10;99.90;;;;;;5114737;28;20040;-55
2021/05/01 11:04:31;;;;;;;9.98;8.75;;;12.10;99.90;;;;;;5114489;28;20114;-56
2021/05/01 11:07:22;;;;;;;8.00;5.57;;;12.10;99.90;;;;;;5114812;28;20070;-55
2021/05/01 11:09:51;;;;;;;;;;;12.00;99.90;;;;;;5114755;28;20092;-55
2021/05/01 11:12:22;;;;;;;5.95;5.35;;;11.60;99.90;;;;;;5096064;28;19957;-55
2021/05/01 11:15:03;;;;;;;7.65;5.55;;;11.40;99.90;;;;;;5114348;28;20050;-55
2021/05/01 11:17:32;;;;;;;6.82;5.63;;;11.30;99.90;;;;;;5114241;28;20039;-55
2021/05/01 11:20:05;;;;;;;6.30;5.63;;;11.40;99.90;;;;;;5114338;28;20043;-55
2021/05/01 11:22:36;;;;;;;8.57;6.47;;;11.40;99.90;;;;;;5114058;28;20039;-54
2021/05/01 11:25:09;;;;;;;7.63;6.05;;;11.50;99.90;;;;;;5114262;28;20071;-55
2021/05/01 11:27:35;;;;;;;9.07;6.60;;;11.60;99.90;;;;;;5114224;28;20065;-55
2021/05/01 11:30:01;;;;;;;7.18;6.47;;;11.70;99.90;;;;;;5113997;28;20050;-55
2021/05/01 11:32:27;;;;;;;9.57;6.47;;;11.70;99.90;;;;;;5113949;28;20470;-55
2021/05/01 11:35:03;;;;;;;7.03;6.13;;;11.70;99.90;;;;;;5095530;28;20043;-55
2021/05/01 11:37:35;;;;;;;7.90;6.63;;;11.60;99.90;;;;;;5113746;28;20392;-55
2021/05/01 11:40:03;;;;;;;9.40;6.88;;;11.50;99.90;;;;;;5113794;28;20078;-55
2021/05/01 11:42:30;;;;;;;8.35;6.97;;;11.60;99.90;;;;;;5112962;28;20073;-55
2021/05/01 11:44:56;;;;;;;6.95;6.25;;;11.50;99.90;;;;;;5113768;28;20086;-56
2021/05/01 11:47:26;;;;;;;7.45;6.07;;;11.40;99.90;;;;;;5113471;28;20098;-55
2021/05/01 11:49:55;;;;;;;7.88;7.07;;;11.50;99.90;;;;;;5113903;28;20050;-56
2021/05/01 11:52:34;;;;;;;8.10;6.68;;;11.50;99.90;;;;;;5113655;28;20048;-55
2021/05/01 11:55:14;;;;;;;11.30;6.65;;;11.50;99.90;;;;;;5113741;28;20063;-55
2021/05/01 11:58:00;;;;;;;8.38;7.03;;;11.50;99.90;;;;;;5113525;28;20043;-55
2021/05/01 12:00:39;;;;;;;11.48;6.70;;;11.50;99.90;;;;;;5113607;28;20177;-55
2021/05/01 12:03:22;;;;;;;8.82;7.13;;;11.50;99.90;;;;;;5113517;28;20473;-56
2021/05/01 12:05:58;;;;;;;8.30;7.35;;;11.50;99.90;;;;;;5113193;28;20046;-55
2021/05/01 12:08:25;;;;;;;10.35;7.80;;;11.50;99.90;;;;;;5113849;28;20054;-55
2021/05/01 12:10:55;;;;;;;10.30;7.35;;;11.60;99.90;;;;;;5113775;28;20055;-56
2021/05/01 12:13:30;;;;;;;10.82;8.55;;;11.60;99.90;;;;;;5113334;28;20043;-56
2021/05/01 12:15:58;;;;;;;9.15;8.20;;;11.70;99.90;;;;;;5113112;28;20174;-56
2021/05/01 12:18:49;;;;;;;9.32;7.88;;;11.80;99.90;;;;;;5112937;28;20040;-56
2021/05/01 12:21:24;;;;;;;8.85;7.85;;;11.80;99.90;;;;;;5113125;28;20054;-55
2021/05/01 12:23:52;;;;;;;9.40;7.95;;;11.90;99.90;;;;;;5112953;28;20404;-55
2021/05/01 12:26:32;;;;;;;10.93;9.20;;;11.90;99.90;;;;;;5112818;28;20065;-55
2021/05/01 12:29:17;;;;;;;9.25;8.18;;;12.00;99.90;;;;;;5112769;28;20447;-55
2021/05/01 12:31:44;;;;;;;8.63;7.72;;;12.00;99.90;;;;;;5112770;28;20481;-56
2021/05/01 12:34:10;;;;;;;10.13;8.43;;;12.20;99.90;;;;;;5112808;28;20130;-55
2021/05/01 12:36:43;;;;;;;10.05;8.32;;;12.30;99.90;;;;;;5112724;28;20135;-55
2021/05/01 12:39:11;;;;;;;10.30;8.85;;;12.50;99.90;;;;;;5112817;28;20047;-55
2021/05/01 12:41:40;;;;;;;9.85;7.78;;;12.60;99.90;;;;;;5112678;28;20043;-55
2021/05/01 12:44:07;;;;;;;12.13;7.28;;;12.80;99.90;;;;;;5113087;28;20430;-55
2021/05/01 12:46:43;;;;;;;8.45;7.30;;;13.10;99.90;;;;;;5112924;28;20395;-56
2021/05/01 12:49:21;;;;;;;7.97;7.18;;;13.20;99.90;;;;;;5112699;28;20039;-56
2021/05/01 12:51:54;;;;;;;9.18;7.93;;;13.20;99.90;;;;;;5112326;28;20113;-55